createdAt,value
2023-02-28T00:00:42.534Z,7.60
2023-02-28T00:03:20.717Z,8.10
2023-02-28T00:05:50.684Z,6.80
2023-02-28T00:08:26.233Z,9.10
2023-02-28T00:10:55.947Z,8.20
2023-02-28T00:13:26.893Z,8.30
2023-02-28T00:16:01.823Z,8.80
2023-02-28T00:18:32.112Z,7.10
2023-02-28T00:21:02.607Z,7.60
2023-02-28T00:23:32.724Z,6.50
2023-02-28T00:26:03.289Z,6.20
2023-02-28T00:28:34.199Z,6.30
2023-02-28T00:31:04.825Z,7.30
2023-02-28T00:33:35.730Z,7.60
2023-02-28T00:36:09.898Z,7.80
2023-02-28T00:38:42.000Z,8.30
2023-02-28T00:41:11.957Z,9.60
2023-02-28T00:43:42.040Z,9.20
2023-02-28T00:46:16.934Z,9.20
2023-02-28T00:48:46.062Z,8.80
2023-02-28T00:51:15.872Z,9.30
2023-02-28T00:53:45.678Z,8.80
2023-02-28T00:56:15.627Z,9.00
2023-02-28T00:58:46.144Z,9.00
2023-02-28T01:01:20.078Z,7.40
2023-02-28T01:03:49.264Z,8.20
2023-02-28T01:06:19.294Z,8.30
2023-02-28T01:08:51.058Z,7.20
2023-02-28T01:11:20.473Z,8.20
2023-02-28T01:13:50.345Z,8.00
2023-02-28T01:16:27.366Z,8.60
2023-02-28T01:18:56.890Z,8.10
2023-02-28T01:21:27.474Z,7.50
2023-02-28T01:24:03.867Z,7.50
2023-02-28T01:26:34.450Z,8.50
2023-02-28T01:29:04.468Z,7.90
2023-02-28T01:31:34.138Z,8.40
2023-02-28T01:34:05.153Z,8.00
2023-02-28T01:36:34.834Z,6.40
2023-02-28T01:39:08.389Z,6.90
2023-02-28T01:41:38.303Z,7.80
2023-02-28T01:44:47.325Z,7.20
2023-02-28T01:47:17.067Z,5.90
2023-02-28T01:49:49.469Z,7.70
2023-02-28T01:52:21.352Z,6.50
2023-02-28T01:54:55.083Z,7.20
2023-02-28T01:57:39.566Z,7.30
2023-02-28T02:00:15.909Z,7.20
2023-02-28T02:05:38.719Z,5.80
2023-02-28T02:08:37.513Z,6.80
2023-02-28T02:11:14.769Z,7.60
2023-02-28T02:14:05.804Z,7.60
2023-02-28T02:16:55.389Z,6.10
2023-02-28T02:19:57.929Z,8.30
2023-02-28T02:22:49.084Z,6.50
2023-02-28T02:25:25.151Z,8.80
2023-02-28T02:28:33.432Z,7.60
2023-02-28T02:31:29.869Z,8.30
2023-02-28T02:34:09.137Z,8.90
2023-02-28T02:36:53.611Z,9.10
2023-02-28T02:39:36.270Z,8.70
2023-02-28T02:42:24.047Z,8.80
2023-02-28T02:45:27.387Z,9.50
2023-02-28T02:48:08.639Z,8.10
2023-02-28T02:50:45.218Z,8.50
2023-02-28T02:53:19.532Z,8.90
2023-02-28T02:55:55.904Z,9.10
2023-02-28T02:58:30.976Z,9.10
2023-02-28T03:01:29.436Z,9.00
2023-02-28T03:04:04.473Z,8.10
2023-02-28T03:06:38.973Z,8.10
2023-02-28T03:09:08.090Z,7.50
2023-02-28T03:11:40.925Z,7.20
2023-02-28T03:14:56.340Z,8.00
2023-02-28T03:17:28.590Z,7.10
2023-02-28T03:20:17.050Z,7.60
2023-02-28T03:23:19.371Z,7.60
2023-02-28T03:26:04.552Z,7.30
2023-02-28T03:29:18.390Z,6.60
2023-02-28T03:32:29.859Z,6.70
2023-02-28T03:35:12.753Z,6.40
2023-02-28T03:37:47.408Z,7.30
2023-02-28T03:40:28.214Z,7.20
2023-02-28T03:43:09.774Z,6.50
2023-02-28T03:45:44.326Z,7.30
2023-02-28T03:48:27.958Z,6.80
2023-02-28T03:51:01.326Z,6.90
2023-02-28T03:53:36.121Z,6.80
2023-02-28T03:56:15.863Z,7.70
2023-02-28T03:59:13.559Z,7.20
2023-02-28T04:01:49.956Z,6.60
2023-02-28T04:04:21.485Z,7.50
2023-02-28T04:07:14.996Z,8.80
2023-02-28T04:09:45.185Z,8.90
2023-02-28T04:12:15.579Z,8.50
2023-02-28T04:14:44.865Z,8.60
2023-02-28T04:17:14.930Z,7.90
2023-02-28T04:19:45.459Z,8.80
2023-02-28T04:22:15.478Z,7.90
2023-02-28T04:24:45.074Z,8.40
2023-02-28T04:27:17.114Z,8.60
2023-02-28T04:29:46.499Z,8.30
2023-02-28T04:32:16.928Z,8.10
2023-02-28T04:34:47.669Z,9.20
2023-02-28T04:37:17.214Z,9.30
2023-02-28T04:39:47.233Z,10.60
2023-02-28T04:42:17.315Z,10.30
2023-02-28T04:44:48.901Z,9.60
2023-02-28T04:47:18.751Z,9.60
2023-02-28T04:49:49.413Z,10.60
2023-02-28T04:52:19.875Z,10.00
2023-02-28T04:54:50.717Z,8.50
2023-02-28T04:57:20.844Z,8.80
2023-02-28T04:59:51.123Z,9.30
2023-02-28T05:02:21.679Z,8.70
2023-02-28T05:04:50.901Z,9.30
2023-02-28T05:07:21.151Z,8.90
2023-02-28T05:09:50.422Z,8.40
2023-02-28T05:12:20.492Z,8.10
2023-02-28T05:14:49.992Z,8.90
2023-02-28T05:17:19.486Z,8.20
2023-02-28T05:19:54.581Z,8.40
2023-02-28T05:22:26.335Z,8.80
2023-02-28T05:24:57.058Z,8.70
2023-02-28T05:27:44.616Z,8.60
2023-02-28T05:30:15.693Z,8.10
2023-02-28T05:32:45.622Z,8.90
2023-02-28T05:35:17.758Z,9.40
2023-02-28T05:37:47.283Z,8.90
2023-02-28T05:40:23.261Z,10.70
2023-02-28T05:42:53.278Z,10.10
2023-02-28T05:45:23.490Z,12.10
2023-02-28T05:47:56.109Z,11.30
2023-02-28T05:50:26.594Z,11.40
2023-02-28T05:52:55.957Z,12.60
2023-02-28T05:55:26.470Z,10.90
2023-02-28T05:57:57.461Z,11.00
2023-02-28T06:00:26.861Z,12.60
2023-02-28T06:02:59.465Z,12.60
2023-02-28T06:05:29.863Z,13.20
2023-02-28T06:07:59.654Z,12.70
2023-02-28T06:10:29.338Z,12.60
2023-02-28T06:13:04.047Z,12.30
2023-02-28T06:15:36.979Z,13.30
2023-02-28T06:18:07.254Z,13.20
2023-02-28T06:20:37.799Z,12.30
2023-02-28T06:23:08.754Z,13.00
2023-02-28T06:25:38.492Z,13.10
2023-02-28T06:28:08.817Z,13.50
2023-02-28T06:30:41.772Z,13.40
2023-02-28T06:33:13.973Z,15.60
2023-02-28T06:35:48.101Z,16.10
2023-02-28T06:38:19.580Z,14.00
2023-02-28T06:41:01.065Z,15.50
2023-02-28T06:43:33.594Z,14.00
2023-02-28T06:46:06.366Z,13.70
2023-02-28T06:48:37.041Z,14.10
2023-02-28T06:51:11.271Z,13.60
2023-02-28T06:53:40.561Z,14.10
2023-02-28T06:56:13.368Z,12.00
2023-02-28T06:58:43.464Z,12.80
2023-02-28T07:01:15.605Z,12.60
2023-02-28T07:03:57.449Z,13.30
2023-02-28T07:06:39.149Z,12.60
2023-02-28T07:09:09.522Z,13.70
2023-02-28T07:11:39.424Z,12.70
2023-02-28T07:14:09.334Z,11.60
2023-02-28T07:16:39.284Z,11.60
2023-02-28T07:19:09.385Z,11.50
2023-02-28T07:21:40.874Z,12.20
2023-02-28T07:24:11.941Z,11.10
2023-02-28T07:26:41.913Z,11.80
2023-02-28T07:29:11.575Z,11.80
2023-02-28T07:31:41.201Z,12.90
2023-02-28T07:34:10.488Z,12.50
2023-02-28T07:36:41.088Z,12.30
2023-02-28T07:39:12.507Z,12.70
2023-02-28T07:41:44.942Z,11.50
2023-02-28T07:46:45.415Z,11.40
2023-02-28T07:49:15.947Z,12.40
2023-02-28T07:51:46.200Z,12.80
2023-02-28T07:54:16.539Z,12.70
2023-02-28T07:56:46.395Z,11.60
2023-02-28T07:59:17.088Z,11.40
2023-02-28T08:01:46.986Z,11.50
2023-02-28T08:04:16.472Z,10.60
2023-02-28T08:06:46.410Z,11.50
2023-02-28T08:09:16.521Z,12.20
2023-02-28T08:11:46.605Z,13.60
2023-02-28T08:14:16.980Z,17.30
2023-02-28T08:16:46.072Z,17.20
2023-02-28T08:19:17.107Z,15.20
2023-02-28T08:21:46.202Z,12.90
2023-02-28T08:24:16.326Z,11.60
2023-02-28T08:26:46.653Z,12.30
2023-02-28T08:29:18.487Z,11.90
2023-02-28T08:31:48.992Z,11.10
2023-02-28T08:34:18.876Z,11.90
2023-02-28T08:36:48.762Z,11.80
2023-02-28T08:39:19.593Z,10.50
2023-02-28T08:42:02.203Z,11.50
2023-02-28T08:44:37.091Z,12.60
2023-02-28T08:47:06.710Z,12.80
2023-02-28T08:49:39.171Z,12.50
2023-02-28T08:52:09.463Z,13.20
2023-02-28T08:54:39.580Z,13.90
2023-02-28T08:57:09.563Z,13.80
2023-02-28T08:59:39.445Z,12.70
2023-02-28T09:02:13.943Z,13.50
2023-02-28T09:04:49.182Z,14.30
2023-02-28T09:07:18.747Z,10.90
2023-02-28T09:09:55.303Z,13.40
2023-02-28T09:12:27.509Z,11.90
2023-02-28T09:15:01.306Z,11.60
2023-02-28T09:17:31.203Z,11.80
2023-02-28T09:20:01.224Z,12.70
2023-02-28T09:22:30.734Z,12.80
2023-02-28T09:25:03.137Z,10.60
2023-02-28T09:27:33.689Z,11.70
2023-02-28T09:30:03.181Z,12.50
2023-02-28T09:32:32.823Z,11.50
2023-02-28T09:35:03.218Z,12.00
2023-02-28T09:37:33.535Z,12.40
2023-02-28T09:40:05.283Z,11.70
2023-02-28T09:42:35.933Z,12.60
2023-02-28T09:45:27.306Z,10.90
2023-02-28T09:48:05.743Z,11.80
2023-02-28T09:50:37.396Z,11.20
2023-02-28T09:53:29.478Z,11.30
2023-02-28T09:56:12.261Z,10.80
2023-02-28T09:59:08.616Z,10.40
2023-02-28T10:02:05.226Z,10.70
2023-02-28T10:04:56.911Z,10.50
2023-02-28T10:07:56.564Z,10.20
2023-02-28T10:10:58.618Z,10.80
2023-02-28T10:13:34.301Z,10.60
2023-02-28T10:16:13.300Z,10.60
2023-02-28T10:19:07.998Z,10.00
2023-02-28T10:21:50.502Z,11.20
2023-02-28T10:27:17.713Z,11.20
2023-02-28T10:29:54.921Z,11.20
2023-02-28T10:32:31.447Z,10.90
2023-02-28T10:35:19.966Z,11.00
2023-02-28T10:37:54.824Z,12.10
2023-02-28T10:40:24.667Z,11.90
2023-02-28T10:42:58.437Z,12.00
2023-02-28T10:45:31.129Z,10.60
2023-02-28T10:48:02.949Z,12.00
2023-02-28T10:50:55.856Z,10.70
2023-02-28T10:53:28.555Z,11.70
2023-02-28T10:56:19.009Z,11.80
2023-02-28T10:59:02.311Z,11.90
2023-02-28T11:01:32.094Z,11.20
2023-02-28T11:04:04.676Z,11.90
2023-02-28T11:06:36.625Z,12.00
2023-02-28T11:09:23.660Z,12.00
2023-02-28T11:11:57.124Z,12.20
2023-02-28T11:14:31.356Z,12.00
2023-02-28T11:17:25.202Z,10.90
2023-02-28T11:20:16.373Z,11.70
2023-02-28T11:22:47.968Z,11.50
2023-02-28T11:25:37.836Z,12.20
2023-02-28T11:28:34.671Z,11.60
2023-02-28T11:31:17.861Z,10.40
2023-02-28T11:33:57.271Z,11.20
2023-02-28T11:36:30.952Z,12.20
2023-02-28T11:39:06.871Z,12.60
2023-02-28T11:42:03.816Z,13.30
2023-02-28T11:44:48.495Z,13.20
2023-02-28T11:47:27.397Z,11.90
2023-02-28T11:50:36.368Z,12.00
2023-02-28T11:54:01.402Z,12.30
2023-02-28T11:56:51.593Z,12.70
2023-02-28T11:59:30.768Z,11.60
2023-02-28T12:02:59.263Z,12.90
2023-02-28T12:05:48.924Z,12.60
2023-02-28T12:08:45.898Z,11.80
2023-02-28T12:11:41.579Z,13.70
2023-02-28T12:14:30.882Z,13.40
2023-02-28T12:17:06.221Z,12.60
2023-02-28T12:20:24.556Z,13.50
2023-02-28T12:23:41.071Z,13.10
2023-02-28T12:26:40.128Z,12.30
2023-02-28T12:29:25.426Z,12.30
2023-02-28T12:32:39.209Z,13.10
2023-02-28T12:35:11.751Z,11.80
2023-02-28T12:37:51.620Z,13.80
2023-02-28T12:40:44.508Z,13.30
2023-02-28T12:43:16.848Z,13.00
2023-02-28T12:46:19.330Z,11.40
2023-02-28T12:48:53.977Z,12.70
2023-02-28T12:51:31.790Z,12.30
2023-02-28T12:54:25.685Z,13.10
2023-02-28T12:57:36.454Z,12.30
2023-02-28T13:00:48.796Z,13.80
2023-02-28T13:03:29.808Z,14.70
2023-02-28T13:07:01.342Z,14.10
2023-02-28T13:09:32.638Z,13.30
2023-02-28T13:12:18.321Z,17.30
2023-02-28T13:14:50.173Z,17.90
2023-02-28T13:17:27.507Z,19.80
2023-02-28T13:20:02.389Z,18.30
2023-02-28T13:22:36.503Z,21.00
2023-02-28T13:25:26.791Z,22.90
2023-02-28T13:27:58.148Z,13.80
2023-02-28T13:30:52.362Z,14.20
2023-02-28T13:33:29.246Z,15.50
2023-02-28T13:36:26.820Z,22.30
2023-02-28T13:39:06.058Z,22.40
2023-02-28T13:41:35.937Z,21.80
2023-02-28T13:44:39.996Z,21.40
2023-02-28T13:47:34.581Z,21.30
2023-02-28T13:50:27.173Z,20.20
2023-02-28T13:53:15.400Z,23.50
2023-02-28T13:56:26.787Z,21.20
2023-02-28T13:59:23.900Z,20.80
2023-02-28T14:02:25.450Z,21.00
2023-02-28T14:05:18.681Z,22.20
2023-02-28T14:07:54.563Z,20.50
2023-02-28T14:10:32.828Z,21.30
2023-02-28T14:13:27.486Z,20.20
2023-02-28T14:16:02.617Z,19.30
2023-02-28T14:18:39.607Z,20.20
2023-02-28T14:21:14.757Z,21.00
2023-02-28T14:24:23.464Z,20.80
2023-02-28T14:27:15.478Z,21.40
2023-02-28T14:30:06.435Z,19.40
2023-02-28T14:32:52.441Z,16.80
2023-02-28T14:35:44.561Z,20.90
2023-02-28T14:38:22.854Z,21.60
2023-02-28T14:40:58.583Z,20.00
2023-02-28T14:43:30.778Z,21.60
2023-02-28T14:46:22.584Z,20.90
2023-02-28T14:49:33.965Z,20.90
2023-02-28T14:52:20.619Z,21.40
2023-02-28T14:55:04.941Z,22.50
2023-02-28T14:57:43.139Z,21.40
2023-02-28T15:00:23.434Z,20.90
2023-02-28T15:02:55.213Z,22.50
2023-02-28T15:05:29.506Z,21.00
2023-02-28T15:08:18.538Z,22.10
2023-02-28T15:11:03.078Z,23.30
2023-02-28T15:13:57.796Z,19.80
2023-02-28T15:16:41.714Z,21.40
2023-02-28T15:19:30.984Z,20.70
2023-02-28T15:22:18.220Z,21.10
2023-02-28T15:24:54.653Z,20.60
2023-02-28T15:27:34.650Z,20.70
2023-02-28T15:30:18.461Z,21.30
2023-02-28T15:33:06.501Z,21.70
2023-02-28T15:35:37.061Z,21.70
2023-02-28T15:38:29.387Z,18.00
2023-02-28T15:41:00.745Z,19.40
2023-02-28T15:43:38.773Z,20.60
2023-02-28T15:46:14.736Z,19.80
2023-02-28T15:48:58.499Z,20.00
2023-02-28T15:51:38.289Z,21.40
2023-02-28T15:54:16.326Z,20.20
2023-02-28T15:56:55.301Z,19.90
2023-02-28T15:59:31.293Z,20.40
2023-02-28T16:02:05.641Z,19.90
2023-02-28T16:04:35.132Z,19.30
2023-02-28T16:07:06.849Z,19.70
2023-02-28T16:09:39.364Z,20.30
2023-02-28T16:12:14.964Z,19.70
2023-02-28T16:14:48.447Z,20.40
2023-02-28T16:17:31.219Z,19.60
2023-02-28T16:20:36.646Z,20.20
2023-02-28T16:23:09.984Z,19.60
2023-02-28T16:25:43.938Z,17.80
2023-02-28T16:28:34.980Z,19.00
2023-02-28T16:31:08.085Z,18.30
2023-02-28T16:33:41.899Z,18.10
2023-02-28T16:36:30.837Z,17.60
2023-02-28T16:39:00.266Z,16.50
2023-02-28T16:41:31.226Z,15.20
2023-02-28T16:44:02.478Z,15.50
2023-02-28T16:46:38.167Z,12.00
2023-02-28T16:49:14.649Z,14.80
2023-02-28T16:51:44.619Z,16.30
2023-02-28T16:54:14.424Z,17.80
2023-02-28T16:56:48.635Z,23.30
2023-02-28T16:59:24.926Z,20.20
2023-02-28T17:01:55.776Z,19.50
2023-02-28T17:04:26.861Z,17.80
2023-02-28T17:06:57.005Z,20.10
2023-02-28T17:09:41.269Z,22.80
2023-02-28T17:12:12.727Z,24.10
2023-02-28T17:14:41.993Z,24.00
2023-02-28T17:17:22.923Z,26.90
2023-02-28T17:19:53.531Z,20.90
2023-02-28T17:22:27.275Z,23.40
2023-02-28T17:24:57.153Z,24.30
2023-02-28T17:27:28.570Z,25.80
2023-02-28T17:29:58.998Z,26.30
2023-02-28T17:32:29.519Z,23.30
2023-02-28T17:35:00.797Z,23.70
2023-02-28T17:37:30.367Z,23.50
2023-02-28T17:40:00.790Z,24.40
2023-02-28T17:42:30.294Z,24.50
2023-02-28T17:45:00.274Z,23.20
2023-02-28T17:47:29.618Z,23.10
2023-02-28T17:49:59.809Z,23.90
2023-02-28T17:52:30.909Z,23.70
2023-02-28T17:55:07.562Z,22.70
2023-02-28T17:57:37.293Z,24.10
2023-02-28T18:00:08.166Z,22.60
2023-02-28T18:02:41.472Z,23.60
2023-02-28T18:05:15.982Z,24.90
2023-02-28T18:07:46.002Z,24.40
2023-02-28T18:10:22.540Z,19.40
2023-02-28T18:12:53.770Z,22.00
2023-02-28T18:15:24.118Z,24.20
2023-02-28T18:17:53.496Z,24.50
2023-02-28T18:20:24.521Z,26.20
2023-02-28T18:22:54.431Z,23.50
2023-02-28T18:25:26.784Z,26.00
2023-02-28T18:27:58.980Z,26.30
2023-02-28T18:30:34.001Z,24.80
2023-02-28T18:33:05.238Z,23.50
2023-02-28T18:35:37.760Z,25.00
2023-02-28T18:38:17.077Z,27.10
2023-02-28T18:41:08.799Z,23.50
2023-02-28T18:43:40.770Z,24.20
2023-02-28T18:46:13.514Z,25.30
2023-02-28T18:48:44.273Z,25.90
2023-02-28T18:51:20.234Z,25.50
2023-02-28T18:53:52.075Z,26.30
2023-02-28T18:56:25.628Z,26.10
2023-02-28T18:58:55.242Z,25.70
2023-02-28T19:01:31.524Z,26.80
2023-02-28T19:04:03.881Z,24.80
2023-02-28T19:06:34.873Z,24.70
2023-02-28T19:09:04.809Z,25.60
2023-02-28T19:11:36.658Z,26.00
2023-02-28T19:14:06.434Z,25.10
2023-02-28T19:16:36.699Z,26.30
2023-02-28T19:19:07.071Z,25.20
2023-02-28T19:21:37.055Z,26.40
2023-02-28T19:24:07.098Z,26.40
2023-02-28T19:26:37.234Z,25.10
2023-02-28T19:29:07.203Z,26.30
2023-02-28T19:31:38.679Z,25.70
2023-02-28T19:34:08.643Z,25.40
2023-02-28T19:36:39.111Z,25.00
2023-02-28T19:39:09.733Z,21.70
2023-02-28T19:41:40.230Z,22.00
2023-02-28T19:44:11.490Z,22.30
2023-02-28T19:46:40.962Z,21.20
2023-02-28T19:49:10.248Z,21.60
2023-02-28T19:51:44.284Z,24.60
2023-02-28T19:54:14.165Z,26.50
2023-02-28T19:56:44.516Z,25.30
2023-02-28T19:59:21.458Z,26.40
2023-02-28T20:01:57.030Z,26.80
2023-02-28T20:04:28.221Z,24.90
2023-02-28T20:06:58.702Z,25.30
2023-02-28T20:09:33.124Z,25.50
2023-02-28T20:12:09.272Z,23.10
2023-02-28T20:14:45.221Z,23.50
2023-02-28T20:17:17.761Z,25.60
2023-02-28T20:19:47.377Z,26.40
2023-02-28T20:22:17.358Z,25.10
2023-02-28T20:24:48.644Z,24.20
2023-02-28T20:27:18.918Z,23.60
2023-02-28T20:29:49.348Z,23.10
2023-02-28T20:32:18.920Z,23.20
2023-02-28T20:34:49.109Z,24.30
2023-02-28T20:37:18.471Z,23.80
2023-02-28T20:39:50.217Z,25.20
2023-02-28T20:42:22.613Z,23.80
2023-02-28T20:44:53.091Z,24.40
2023-02-28T20:47:22.679Z,24.80
2023-02-28T20:49:52.607Z,23.80
2023-02-28T20:52:22.727Z,20.30
2023-02-28T20:54:53.506Z,21.80
2023-02-28T20:57:25.706Z,23.10
2023-02-28T20:59:59.056Z,22.40
2023-02-28T21:02:39.655Z,20.20
2023-02-28T21:05:10.059Z,22.00
2023-02-28T21:07:39.771Z,19.60
2023-02-28T21:10:12.924Z,20.40
2023-02-28T21:12:43.848Z,23.50
2023-02-28T21:15:18.925Z,21.90
2023-02-28T21:17:49.546Z,24.40
2023-02-28T21:20:22.353Z,23.50
2023-02-28T21:22:54.344Z,24.60
2023-02-28T21:25:24.654Z,23.40
2023-02-28T21:27:56.073Z,21.70
2023-02-28T21:30:26.303Z,26.00
2023-02-28T21:32:58.303Z,25.50
2023-02-28T21:35:30.974Z,28.30
2023-02-28T21:38:00.373Z,19.20
2023-02-28T21:40:30.409Z,27.20
2023-02-28T21:43:00.451Z,25.70
2023-02-28T21:45:31.619Z,23.30
2023-02-28T21:48:05.689Z,25.20
2023-02-28T21:50:35.070Z,24.80
2023-02-28T21:53:04.710Z,25.20
2023-02-28T21:55:35.733Z,26.50
2023-02-28T21:58:05.613Z,25.80
2023-02-28T22:00:36.070Z,23.40
2023-02-28T22:03:06.170Z,23.50
2023-02-28T22:05:36.193Z,22.40
2023-02-28T22:08:07.199Z,21.70
2023-02-28T22:10:36.976Z,20.80
2023-02-28T22:13:16.221Z,20.70
2023-02-28T22:15:47.066Z,18.20
2023-02-28T22:18:17.307Z,18.60
2023-02-28T22:20:57.551Z,20.00
2023-02-28T22:23:26.870Z,21.30
2023-02-28T22:25:58.080Z,20.40
2023-02-28T22:28:30.893Z,20.70
2023-02-28T22:31:06.483Z,21.20
2023-02-28T22:33:36.097Z,20.90
2023-02-28T22:36:09.512Z,21.30
2023-02-28T22:38:40.331Z,19.50
2023-02-28T22:41:13.402Z,19.40
2023-02-28T22:43:44.540Z,20.10
2023-02-28T22:46:14.273Z,20.20
2023-02-28T22:48:44.415Z,20.20
2023-02-28T22:51:20.472Z,20.80
2023-02-28T22:53:52.412Z,16.60
2023-02-28T22:56:24.642Z,16.50
2023-02-28T22:58:57.514Z,21.60
2023-02-28T23:01:30.910Z,16.00
2023-02-28T23:04:01.924Z,24.00
2023-02-28T23:06:38.360Z,22.80
2023-02-28T23:09:12.222Z,15.80
2023-02-28T23:11:46.098Z,19.90
2023-02-28T23:14:18.520Z,23.20
2023-02-28T23:16:52.088Z,21.30
2023-02-28T23:19:31.050Z,28.20
2023-02-28T23:22:03.180Z,26.00
2023-02-28T23:24:35.697Z,26.30
2023-02-28T23:29:36.622Z,24.50
2023-02-28T23:32:06.831Z,27.00
2023-02-28T23:34:36.924Z,24.10
2023-02-28T23:37:06.726Z,24.80
2023-02-28T23:39:36.918Z,22.10
2023-02-28T23:42:06.774Z,23.90
2023-02-28T23:44:41.038Z,25.10
2023-02-28T23:47:14.453Z,23.00
2023-02-28T23:49:48.904Z,20.70
2023-02-28T23:52:22.341Z,16.90
2023-02-28T23:54:54.580Z,18.90
2023-02-28T23:57:23.993Z,19.80
2023-02-28T23:59:55.739Z,21.30
